Time;durP1;ratioP1;P1;durP2;ratioP2;P2;SDS_P1;SDS_P2;PMS_P1;PMS_P2;Temp;Humidity;BMP_temperature;BMP_pressure;BME280_temperature;BME280_humidity;BME280_pressure;Samples;Min_cycle;Max_cycle;Signal;HPM_P1;HPM_P2
2022/11/17 00:07:24;;;;;;;1999.90;999.90;;;11.20;99.90;;;;;;6740716;88;21137;-74
2022/11/17 00:17:24;;;;;;;1999.90;999.90;;;11.20;99.90;;;;;;6743992;88;20219;-75
2022/11/17 00:27:25;;;;;;;1999.90;999.90;;;11.30;99.90;;;;;;6741389;87;20206;-73
2022/11/17 00:37:27;;;;;;;1999.90;999.90;;;11.40;99.90;;;;;;6742615;88;20193;-74
2022/11/17 00:47:28;;;;;;;1999.90;999.90;;;11.40;99.90;;;;;;6738416;88;20237;-74
2022/11/17 00:57:28;;;;;;;1999.90;999.90;;;11.40;99.90;;;;;;6742037;88;20232;-74
2022/11/17 01:07:29;;;;;;;1999.90;999.90;;;11.40;99.90;;;;;;6740619;88;20330;-74
2022/11/17 01:17:30;;;;;;;1999.90;999.90;;;11.30;99.90;;;;;;6753286;87;20181;-73
2022/11/17 01:27:30;;;;;;;1999.90;999.90;;;11.30;99.90;;;;;;6748639;88;20249;-72
2022/11/17 01:37:31;;;;;;;1999.90;999.90;;;11.20;99.90;;;;;;6743944;88;20672;-72
2022/11/17 01:47:38;;;;;;;1999.90;999.90;;;11.20;99.90;;;;;;6737538;87;20193;-72
2022/11/17 01:57:48;;;;;;;1999.90;999.90;;;11.10;99.90;;;;;;6738714;87;20231;-72
2022/11/17 02:18:20;;;;;;;1999.90;999.90;;;10.80;99.90;;;;;;6738370;87;20264;-71
2022/11/17 02:28:44;;;;;;;1999.90;999.90;;;10.70;99.90;;;;;;6736380;88;20210;-72
2022/11/17 02:38:44;;;;;;;1999.90;999.90;;;10.60;99.90;;;;;;6737051;88;20232;-72
2022/11/17 02:48:57;;;;;;;1999.90;999.90;;;10.50;99.90;;;;;;6734641;88;20181;-71
2022/11/17 02:59:02;;;;;;;1999.90;999.90;;;10.50;99.90;;;;;;6744358;88;20185;-72
2022/11/17 03:09:14;;;;;;;1999.90;999.90;;;10.40;99.90;;;;;;6737300;87;20196;-73
2022/11/17 03:19:22;;;;;;;1999.90;999.90;;;10.30;99.90;;;;;;6747073;78;20760;-74
2022/11/17 03:29:26;;;;;;;1999.90;999.90;;;10.30;99.90;;;;;;6748101;88;20282;-75
2022/11/17 03:39:39;;;;;;;1999.90;999.90;;;10.30;99.90;;;;;;6751911;88;20180;-75
2022/11/17 03:49:48;;;;;;;1999.90;999.90;;;10.40;99.90;;;;;;6748534;88;20336;-74
2022/11/17 03:59:55;;;;;;;1999.90;999.90;;;10.50;99.90;;;;;;6751372;88;20189;-75
2022/11/17 04:09:56;;;;;;;1999.90;999.90;;;10.30;99.90;;;;;;6750402;88;20188;-75
2022/11/17 04:19:56;;;;;;;1999.90;999.90;;;10.30;99.90;;;;;;6747597;88;20214;-75
2022/11/17 04:29:57;;;;;;;1999.90;999.90;;;10.40;99.90;;;;;;6748377;88;20172;-75
2022/11/17 04:39:57;;;;;;;1999.90;999.90;;;10.30;99.90;;;;;;6747314;88;20243;-76
2022/11/17 04:49:58;;;;;;;1999.90;999.90;;;10.30;99.90;;;;;;6746909;88;20266;-76
2022/11/17 04:59:58;;;;;;;1999.90;999.90;;;10.30;99.90;;;;;;6745355;88;20175;-75
2022/11/17 05:10:00;;;;;;;1999.90;999.90;;;10.30;99.90;;;;;;6747559;88;21048;-75
2022/11/17 05:20:00;;;;;;;1999.90;999.90;;;10.30;99.90;;;;;;6744161;87;20243;-76
2022/11/17 05:30:02;;;;;;;1999.90;999.90;;;10.40;99.90;;;;;;6752231;87;20214;-75
2022/11/17 05:40:03;;;;;;;1999.90;999.90;;;10.40;99.90;;;;;;6748592;88;21067;-75
2022/11/17 05:50:04;;;;;;;1999.90;999.90;;;10.50;99.90;;;;;;6746773;88;20197;-77
2022/11/17 06:00:07;;;;;;;1999.90;999.90;;;10.70;99.90;;;;;;6743989;88;20247;-76
2022/11/17 06:10:08;;;;;;;1999.90;999.90;;;10.70;99.90;;;;;;6741478;88;20256;-77
2022/11/17 06:21:27;;;;;;;1999.90;999.90;;;10.90;99.90;;;;;;6778465;86;20260;-74
2022/11/17 06:31:27;;;;;;;1999.90;999.90;;;10.80;99.90;;;;;;6775721;87;20326;-75
2022/11/17 06:41:28;;;;;;;1999.90;999.90;;;10.60;99.90;;;;;;6770362;87;20225;-76
2022/11/17 06:51:28;;;;;;;1999.90;999.90;;;10.40;99.90;;;;;;6771679;87;20188;-74
2022/11/17 07:01:29;;;;;;;1999.90;999.90;;;10.30;99.90;;;;;;6768735;87;20282;-73
2022/11/17 07:11:29;;;;;;;1999.90;999.90;;;10.00;99.90;;;;;;6767104;87;20175;-74
2022/11/17 07:21:31;;;;;;;1999.90;999.90;;;9.90;99.90;;;;;;6773464;87;20369;-74
2022/11/17 07:31:35;;;;;;;1999.90;999.90;;;10.00;99.90;;;;;;6762543;87;20221;-76
2022/11/17 07:41:36;;;;;;;1999.90;999.90;;;10.10;99.90;;;;;;6773497;87;20278;-74
2022/11/17 07:51:36;;;;;;;1999.90;999.90;;;10.20;99.90;;;;;;6764853;87;20242;-74
2022/11/17 08:01:37;;;;;;;1999.90;999.90;;;10.40;99.90;;;;;;6757131;87;20203;-74
2022/11/17 08:11:37;;;;;;;1999.90;999.90;;;10.50;99.90;;;;;;6753307;87;20184;-74
2022/11/17 08:21:39;;;;;;;1999.90;999.90;;;10.60;99.90;;;;;;6755227;87;20205;-74
2022/11/17 08:31:44;;;;;;;1999.90;999.90;;;10.70;99.90;;;;;;6762034;87;20494;-74
2022/11/17 08:41:45;;;;;;;1999.90;999.90;;;10.80;99.90;;;;;;6765744;87;20670;-73
2022/11/17 08:51:45;;;;;;;1999.90;999.90;;;10.80;99.90;;;;;;6752695;87;20211;-74
2022/11/17 09:01:46;;;;;;;1999.90;999.90;;;10.80;99.90;;;;;;6755328;87;20204;-74
2022/11/17 09:11:46;;;;;;;1999.90;999.90;;;11.10;99.90;;;;;;6760648;87;20192;-75
2022/11/17 09:21:47;;;;;;;1999.90;999.90;;;11.10;99.90;;;;;;6758360;87;20196;-76
2022/11/17 09:31:48;;;;;;;1999.90;999.90;;;11.20;99.90;;;;;;6751007;88;20178;-75
2022/11/17 09:41:54;;;;;;;1999.90;999.90;;;11.30;99.90;;;;;;6752918;87;20295;-76
2022/11/17 09:51:56;;;;;;;;;;;11.50;99.90;;;;;;6757571;87;20188;-76
2022/11/17 10:01:57;;;;;;;1999.90;999.90;;;11.50;99.90;;;;;;6762082;87;20472;-75
2022/11/17 10:12:21;;;;;;;1999.90;999.90;;;11.60;99.90;;;;;;6752530;87;20278;-75
2022/11/17 10:22:34;;;;;;;1999.90;999.90;;;11.90;99.90;;;;;;6734872;88;20301;-74
2022/11/17 10:32:37;;;;;;;1999.90;999.90;;;12.30;99.90;;;;;;6739959;88;20256;-74
2022/11/17 10:42:39;;;;;;;1999.90;999.90;;;12.30;99.90;;;;;;6740221;88;20692;-74
2022/11/17 10:52:40;;;;;;;1999.90;999.90;;;12.30;99.90;;;;;;6741084;88;20599;-75
2022/11/17 11:02:40;;;;;;;1999.90;999.90;;;12.30;99.90;;;;;;6745873;88;20288;-73
2022/11/17 11:13:03;;;;;;;1999.90;999.90;;;12.50;99.90;;;;;;6740168;88;20326;-74
2022/11/17 11:23:31;;;;;;;1999.90;999.90;;;12.60;99.90;;;;;;6758251;87;20192;-75
2022/11/17 11:33:43;;;;;;;1999.90;999.90;;;12.70;99.90;;;;;;6755508;87;20838;-73
2022/11/17 11:44:15;;;;;;;1999.90;999.90;;;12.90;99.90;;;;;;6757758;87;20188;-78
2022/11/17 11:54:41;;;;;;;1999.90;999.90;;;13.00;99.90;;;;;;6761391;87;20224;-77
2022/11/17 12:05:15;;;;;;;1999.90;999.90;;;13.10;99.90;;;;;;6759819;87;20181;-74
2022/11/17 12:15:21;;;;;;;1999.90;999.90;;;13.20;99.90;;;;;;6760896;87;20228;-74
2022/11/17 12:25:34;;;;;;;1999.90;999.90;;;13.40;99.90;;;;;;6761219;87;20214;-74
2022/11/17 12:35:39;;;;;;;1999.90;999.90;;;13.50;99.90;;;;;;6759656;87;20202;-74
2022/11/17 12:45:52;;;;;;;1999.90;999.90;;;13.40;99.90;;;;;;6755255;87;20754;-74
2022/11/17 12:56:01;;;;;;;1999.90;999.90;;;13.60;99.90;;;;;;6753033;87;20628;-74
2022/11/17 13:06:11;;;;;;;1999.90;999.90;;;14.20;99.90;;;;;;6757351;87;20209;-75
2022/11/17 13:16:18;;;;;;;1999.90;999.90;;;15.90;99.90;;;;;;6759169;87;20205;-74
2022/11/17 13:26:25;;;;;;;1999.90;999.90;;;17.00;99.90;;;;;;6760701;87;20640;-74
2022/11/17 13:36:28;;;;;;;1999.90;999.90;;;16.80;99.90;;;;;;6754210;87;20229;-75
2022/11/17 13:46:35;;;;;;;1999.90;999.90;;;16.30;99.90;;;;;;6753507;87;20234;-74
2022/11/17 13:56:45;;;;;;;1999.90;999.90;;;15.30;99.90;;;;;;6761548;87;20316;-74
2022/11/17 14:07:02;;;;;;;1999.90;999.90;;;15.40;99.90;;;;;;6756482;87;20732;-75
2022/11/17 14:17:12;;;;;;;1999.90;999.90;;;15.70;99.90;;;;;;6757957;87;20220;-74
2022/11/17 14:27:34;;;;;;;1999.90;999.90;;;15.00;99.90;;;;;;6764965;87;20201;-74
2022/11/17 14:37:37;;;;;;;1999.90;999.90;;;14.30;99.90;;;;;;6761408;87;20328;-74
2022/11/17 14:47:44;;;;;;;1999.90;999.90;;;14.10;99.90;;;;;;6760700;87;20608;-76
2022/11/17 14:57:46;;;;;;;1999.90;999.90;;;14.00;99.90;;;;;;6757704;87;20262;-74
2022/11/17 15:07:47;;;;;;;1999.90;999.90;;;13.60;99.90;;;;;;6763601;87;20202;-76
2022/11/17 15:17:55;;;;;;;1999.90;999.90;;;13.30;99.90;;;;;;6751694;88;20384;-75
2022/11/17 15:27:58;;;;;;;1999.90;999.90;;;13.10;99.90;;;;;;6767590;87;20484;-76
2022/11/17 15:37:59;;;;;;;1999.90;999.90;;;12.90;99.90;;;;;;6777856;87;20706;-78
2022/11/17 15:48:02;;;;;;;1999.90;999.90;;;12.70;99.90;;;;;;6772723;87;20205;-77
2022/11/17 15:58:03;;;;;;;1999.90;999.90;;;12.50;99.90;;;;;;6774404;87;20321;-77
2022/11/17 16:08:09;;;;;;;1999.90;999.90;;;12.30;99.90;;;;;;6773014;87;20186;-79
2022/11/17 16:18:10;;;;;;;;;;;12.10;99.90;;;;;;6768524;87;20188;-76
2022/11/17 16:28:12;;;;;;;1999.90;999.90;;;11.90;99.90;;;;;;6770876;87;20075;-76
2022/11/17 16:38:15;;;;;;;1999.90;999.90;;;11.80;99.90;;;;;;6775265;87;20896;-75
2022/11/17 16:48:39;;;;;;;1999.90;999.90;;;11.60;99.90;;;;;;6775802;87;20187;-74
2022/11/17 16:58:53;;;;;;;1999.90;999.90;;;11.60;99.90;;;;;;6759261;87;20662;-75
2022/11/17 17:09:36;;;;;;;;;;;;;;;;;;;;;
2022/11/17 17:19:40;;;;;;;1999.90;999.90;;;11.30;99.90;;;;;;6750964;88;20184;-76
2022/11/17 17:29:53;;;;;;;1999.90;999.90;;;11.30;99.90;;;;;;6752810;88;20996;-79
2022/11/17 17:39:54;;;;;;;1999.90;999.90;;;11.20;99.90;;;;;;6752965;88;20702;-76
2022/11/17 17:50:01;;;;;;;1999.90;999.90;;;11.20;99.90;;;;;;6754042;88;20187;-78
2022/11/17 18:00:22;;;;;;;1999.90;999.90;;;11.20;99.90;;;;;;6756649;87;20674;-76
2022/11/17 18:10:25;;;;;;;1999.90;999.90;;;10.90;99.90;;;;;;6764830;87;20196;-78
2022/11/17 18:20:26;;;;;;;1999.90;999.90;;;10.50;99.90;;;;;;6739899;77;20208;-73
2022/11/17 18:30:26;;;;;;;1999.90;999.90;;;10.40;99.90;;;;;;6732521;88;20237;-73
2022/11/17 18:40:27;;;;;;;1999.90;999.90;;;10.30;99.90;;;;;;6739486;88;20212;-76
2022/11/17 18:50:27;;;;;;;1999.90;999.90;;;10.10;99.90;;;;;;6749600;88;20196;-75
2022/11/17 19:00:28;;;;;;;1999.90;999.90;;;10.00;99.90;;;;;;6749634;88;20192;-77
2022/11/17 19:10:29;;;;;;;1999.90;999.90;;;10.00;99.90;;;;;;6748441;88;20203;-76
2022/11/17 19:20:29;;;;;;;1999.90;999.90;;;9.90;99.90;;;;;;6749404;88;20214;-76
2022/11/17 19:30:30;;;;;;;1999.90;999.90;;;9.80;99.90;;;;;;6752406;88;20201;-75
2022/11/17 19:40:30;;;;;;;1999.90;999.90;;;9.70;99.90;;;;;;6751498;88;20183;-74
2022/11/17 19:50:32;;;;;;;1999.90;999.90;;;9.60;99.90;;;;;;6751833;88;20499;-76
2022/11/17 20:00:33;;;;;;;1999.90;999.90;;;9.60;99.90;;;;;;6722068;88;20620;-76
2022/11/17 20:10:33;;;;;;;1999.90;999.90;;;9.70;99.90;;;;;;6734497;88;20260;-76
2022/11/17 20:20:35;;;;;;;1999.90;999.90;;;9.60;99.90;;;;;;6734378;88;20522;-76
2022/11/17 20:30:37;;;;;;;1999.90;999.90;;;9.70;99.90;;;;;;6733905;88;20177;-75
2022/11/17 20:40:37;;;;;;;1999.90;999.90;;;9.60;99.90;;;;;;6735161;88;21020;-75
2022/11/17 20:50:38;;;;;;;1999.90;999.90;;;9.70;99.90;;;;;;6735358;88;20183;-76
2022/11/17 21:00:38;;;;;;;1999.90;999.90;;;9.70;99.90;;;;;;6734547;88;20189;-76
2022/11/17 21:10:39;;;;;;;1999.90;999.90;;;9.70;99.90;;;;;;6734578;88;20217;-75
2022/11/17 21:20:39;;;;;;;1999.90;999.90;;;9.70;99.90;;;;;;6734759;88;20191;-76
2022/11/17 21:30:40;;;;;;;1999.90;999.90;;;9.80;99.90;;;;;;6733704;88;20187;-75
2022/11/17 21:40:40;;;;;;;1999.90;999.90;;;9.80;99.90;;;;;;6733378;88;20195;-77
2022/11/17 21:50:44;;;;;;;1999.90;999.90;;;9.70;99.90;;;;;;6732835;88;20614;-78
2022/11/17 22:00:44;;;;;;;1999.90;999.90;;;9.60;99.90;;;;;;6735702;88;20417;-76
2022/11/17 22:10:45;;;;;;;1999.90;999.90;;;9.60;99.90;;;;;;6734727;88;20270;-76
2022/11/17 22:20:52;;;;;;;1999.90;999.90;;;9.40;99.90;;;;;;6727530;88;20766;-76
2022/11/17 22:30:53;;;;;;;1999.90;999.90;;;9.30;99.90;;;;;;6714466;88;20617;-76
2022/11/17 22:41:05;;;;;;;1999.90;999.90;;;9.20;99.90;;;;;;6715310;88;20618;-76
2022/11/17 22:51:07;;;;;;;1999.90;999.90;;;9.10;99.90;;;;;;6716013;88;20176;-75
2022/11/17 23:01:08;;;;;;;1999.90;999.90;;;9.10;99.90;;;;;;6717636;88;20203;-76
2022/11/17 23:11:10;;;;;;;1999.90;999.90;;;9.10;99.90;;;;;;6718950;88;20189;-75
2022/11/17 23:21:20;;;;;;;1999.90;999.90;;;9.20;99.90;;;;;;6718611;88;20636;-77
2022/11/17 23:31:29;;;;;;;1999.90;999.90;;;9.30;99.90;;;;;;6718347;88;20251;-76
2022/11/17 23:41:30;;;;;;;1999.90;999.90;;;9.30;99.90;;;;;;6717765;88;20320;-76
2022/11/17 23:51:30;;;;;;;1999.90;999.90;;;9.30;99.90;;;;;;6718417;88;20388;-75
